Time;durP1;ratioP1;P1;durP2;ratioP2;P2;SDS_P1;SDS_P2;PMS_P1;PMS_P2;Temp;Humidity;BMP_temperature;BMP_pressure;BME280_temperature;BME280_humidity;BME280_pressure;Samples;Min_cycle;Max_cycle;Signal;HPM_P1;HPM_P2
2024/02/07 00:01:03;;;;;;;0.30;0.20;;;;;;;10.66;94.17;99698.22;5015643;28;20479;-51
2024/02/07 00:03:29;;;;;;;0.30;0.20;;;;;;;10.79;93.94;99698.59;5015232;28;20480;-51
2024/02/07 00:05:56;;;;;;;0.30;0.20;;;;;;;10.72;93.91;99694.47;5015305;28;20488;-51
2024/02/07 00:08:22;;;;;;;0.30;0.20;;;;;;;10.87;93.10;99677.91;5015023;28;21024;-51
2024/02/07 00:10:49;;;;;;;0.30;0.20;;;;;;;11.00;92.64;99673.84;5014947;28;20459;-51
2024/02/07 00:13:16;;;;;;;0.30;0.20;;;;;;;10.82;93.56;99675.41;4997251;28;20468;-51
2024/02/07 00:15:42;;;;;;;0.30;0.20;;;;;;;10.81;93.47;99672.81;5015325;28;20452;-51
2024/02/07 00:18:08;;;;;;;0.30;0.20;;;;;;;10.81;93.71;99673.69;5015111;28;20480;-51
2024/02/07 00:20:35;;;;;;;0.30;0.20;;;;;;;10.82;93.33;99666.56;5015098;28;20466;-50
2024/02/07 00:23:02;;;;;;;0.30;0.20;;;;;;;10.71;93.98;99674.13;5014815;28;20544;-50
2024/02/07 00:25:28;;;;;;;0.30;0.20;;;;;;;10.80;93.60;99668.44;5005392;28;20943;-55
2024/02/07 00:27:55;;;;;;;0.30;0.20;;;;;;;10.75;94.24;99671.28;4993886;28;20491;-50
2024/02/07 00:30:21;;;;;;;0.30;0.20;;;;;;;10.72;94.06;99657.25;5015101;28;20452;-50
2024/02/07 00:32:59;;;;;;;0.30;0.20;;;;;;;10.77;93.90;99649.94;5014961;28;20535;-49
2024/02/07 00:35:26;;;;;;;0.30;0.20;;;;;;;10.83;94.09;99663.88;5014952;28;20544;-50
2024/02/07 00:37:52;;;;;;;0.30;0.20;;;;;;;10.90;93.98;99667.16;4990886;28;20837;-50
2024/02/07 00:40:19;;;;;;;0.30;0.20;;;;;;;10.83;93.79;99657.69;5007660;28;20452;-50
2024/02/07 00:42:47;;;;;;;0.30;0.20;;;;;;;10.81;93.37;99649.75;5004641;28;20448;-50
2024/02/07 00:45:13;;;;;;;0.30;0.20;;;;;;;10.79;93.42;99651.63;5014933;28;20506;-50
2024/02/07 00:47:39;;;;;;;0.30;0.20;;;;;;;10.77;93.95;99655.28;5014551;28;20574;-50
2024/02/07 00:50:06;;;;;;;0.30;0.20;;;;;;;10.76;94.32;99658.84;5014594;28;20487;-50
2024/02/07 00:52:33;;;;;;;0.30;0.20;;;;;;;10.79;93.82;99648.97;5014250;28;20498;-50
2024/02/07 00:55:00;;;;;;;0.30;0.20;;;;;;;10.76;94.13;99646.44;5005200;28;20564;-50
2024/02/07 00:57:26;;;;;;;0.30;0.20;;;;;;;10.85;94.28;99630.13;5014480;28;20459;-50
2024/02/07 00:59:52;;;;;;;0.30;0.20;;;;;;;10.94;93.74;99626.19;4996987;28;20487;-50
2024/02/07 01:02:19;;;;;;;0.30;0.20;;;;;;;10.86;93.92;99629.19;5013995;28;20965;-50
2024/02/07 01:04:47;;;;;;;0.30;0.20;;;;;;;10.79;94.22;99624.16;5014245;28;20469;-50
2024/02/07 01:07:13;;;;;;;0.30;0.20;;;;;;;10.84;94.00;99632.84;5013044;28;20492;-50
2024/02/07 01:09:40;;;;;;;0.30;0.20;;;;;;;10.89;94.00;99637.03;5014159;28;20876;-50
2024/02/07 01:12:07;;;;;;;0.30;0.20;;;;;;;10.87;94.16;99627.41;5014030;28;20455;-50
2024/02/07 01:14:33;;;;;;;0.40;0.30;;;;;;;10.83;94.28;99620.47;5013840;28;20986;-50
2024/02/07 01:17:00;;;;;;;0.30;0.20;;;;;;;10.77;95.29;99618.91;5013999;28;20939;-50
2024/02/07 01:19:26;;;;;;;0.30;0.20;;;;;;;10.67;95.81;99604.25;5013935;28;20449;-50
2024/02/07 01:21:53;;;;;;;0.30;0.20;;;;;;;10.70;96.49;99608.59;5014005;28;20519;-50
2024/02/07 01:24:19;;;;;;;0.30;0.20;;;;;;;10.61;97.00;99604.50;5011251;28;20474;-50
2024/02/07 01:26:47;;;;;;;0.30;0.20;;;;;;;10.66;97.23;99615.81;5013707;28;20491;-50
2024/02/07 01:29:13;;;;;;;0.30;0.20;;;;;;;10.63;97.36;99607.97;4987432;28;20450;-50
2024/02/07 01:31:40;;;;;;;0.30;0.20;;;;;;;10.68;96.85;99596.22;4998316;28;20892;-50
2024/02/07 01:34:07;;;;;;;0.30;0.20;;;;;;;10.73;96.50;99589.88;5002885;28;20472;-50
2024/02/07 01:36:42;;;;;;;0.30;0.20;;;;;;;10.63;96.50;99598.19;5013521;28;20457;-50
2024/02/07 01:39:10;;;;;;;0.30;0.20;;;;;;;10.71;96.16;99597.03;5010330;28;20518;-50
2024/02/07 01:44:22;;;;;;;0.30;0.20;;;;;;;10.70;96.07;99592.66;5013044;28;20552;-50
2024/02/07 01:46:49;;;;;;;0.30;0.20;;;;;;;10.59;96.62;99582.44;5013289;28;20458;-50
2024/02/07 01:49:16;;;;;;;0.30;0.20;;;;;;;10.72;96.57;99591.66;5013814;28;20451;-50
2024/02/07 01:51:44;;;;;;;0.30;0.20;;;;;;;10.70;96.38;99587.34;5013666;28;20448;-50
2024/02/07 01:54:11;;;;;;;0.30;0.20;;;;;;;10.66;95.74;99579.47;5011042;28;20484;-50
2024/02/07 01:56:38;;;;;;;0.30;0.20;;;;;;;10.67;96.20;99577.69;5006968;28;20445;-49
2024/02/07 01:59:06;;;;;;;0.30;0.20;;;;;;;10.61;96.00;99578.81;5013205;28;21000;-50
2024/02/07 02:01:33;;;;;;;0.30;0.20;;;;;;;10.62;96.14;99579.66;5013288;28;20544;-50
2024/02/07 02:03:59;;;;;;;0.30;0.20;;;;;;;10.63;96.89;99576.06;5013407;28;20479;-50
2024/02/07 02:06:26;;;;;;;0.30;0.20;;;;;;;10.63;96.48;99563.66;5013095;28;20452;-50
2024/02/07 02:08:54;;;;;;;0.30;0.20;;;;;;;10.57;96.96;99561.25;5013289;28;20492;-49
2024/02/07 02:11:31;;;;;;;0.30;0.20;;;;;;;10.61;96.58;99554.88;5012851;28;20480;-50
2024/02/07 02:13:58;;;;;;;0.30;0.20;;;;;;;10.64;96.59;99548.56;5012900;28;20472;-50
2024/02/07 02:16:25;;;;;;;0.30;0.20;;;;;;;10.55;96.56;99538.31;5012965;28;20457;-49
2024/02/07 02:18:53;;;;;;;0.30;0.20;;;;;;;10.68;96.32;99544.84;5012850;28;20452;-50
2024/02/07 02:21:26;;;;;;;0.30;0.20;;;;;;;10.59;96.69;99546.13;5012595;28;20954;-50
2024/02/07 02:24:37;;;;;;;0.30;0.20;;;;;;;10.58;96.96;99539.06;5012798;28;20479;-50
2024/02/07 02:27:28;;;;;;;0.30;0.20;;;;;;;10.64;96.42;99525.50;5012718;28;20495;-50
2024/02/07 02:29:58;;;;;;;0.30;0.20;;;;;;;10.59;96.53;99529.31;5012342;28;20826;-50
2024/02/07 02:32:27;;;;;;;0.30;0.20;;;;;;;10.58;96.57;99514.28;5012580;28;20551;-50
2024/02/07 02:34:55;;;;;;;0.30;0.20;;;;;;;10.66;96.24;99520.13;5012952;28;20481;-50
2024/02/07 02:37:22;;;;;;;0.30;0.20;;;;;;;10.55;96.12;99520.59;5009381;28;20912;-49
2024/02/07 02:39:52;;;;;;;0.30;0.20;;;;;;;10.63;96.12;99513.16;5012891;28;20427;-49
2024/02/07 02:42:19;;;;;;;0.30;0.20;;;;;;;10.62;95.70;99523.84;5002126;28;20456;-50
2024/02/07 02:44:45;;;;;;;0.30;0.20;;;;;;;10.71;96.19;99523.50;5012399;28;20468;-50
2024/02/07 02:47:13;;;;;;;0.30;0.20;;;;;;;10.72;95.51;99511.91;5011971;28;20488;-50
2024/02/07 02:49:39;;;;;;;0.30;0.20;;;;;;;10.78;96.18;99502.81;5012466;28;20503;-50
2024/02/07 02:52:06;;;;;;;0.30;0.20;;;;;;;10.76;96.46;99513.50;4995977;28;20438;-50
2024/02/07 02:54:34;;;;;;;0.30;0.20;;;;;;;10.79;95.98;99505.41;4981005;28;20568;-50
2024/02/07 02:57:02;;;;;;;0.30;0.20;;;;;;;10.65;96.08;99505.97;5003333;28;20445;-50
2024/02/07 02:59:30;;;;;;;0.30;0.20;;;;;;;10.73;95.63;99495.03;5002933;28;20452;-50
2024/02/07 03:01:56;;;;;;;0.30;0.20;;;;;;;10.75;96.07;99495.84;5012279;28;20455;-50
2024/02/07 03:04:25;;;;;;;0.30;0.20;;;;;;;10.74;96.27;99498.56;5011067;28;20523;-50
2024/02/07 03:07:13;;;;;;;0.30;0.20;;;;;;;10.71;95.78;99504.88;5008644;28;20438;-51
2024/02/07 03:09:48;;;;;;;0.30;0.20;;;;;;;10.75;96.54;99481.69;5010994;28;20487;-50
2024/02/07 03:12:16;;;;;;;0.30;0.20;;;;;;;10.57;98.65;99464.72;5004626;28;20445;-50
2024/02/07 03:14:42;;;;;;;0.30;0.20;;;;;;;10.65;99.34;99460.81;5012109;28;20551;-51
2024/02/07 03:17:09;;;;;;;0.30;0.20;;;;;;;10.53;99.41;99458.66;5012446;28;20447;-50
2024/02/07 03:19:35;;;;;;;0.43;0.30;;;;;;;10.37;100.00;99450.47;5007750;28;20466;-50
2024/02/07 03:22:02;;;;;;;0.30;0.20;;;;;;;10.47;99.87;99448.28;4990474;28;20498;-51
2024/02/07 03:24:28;;;;;;;0.30;0.20;;;;;;;10.48;100.00;99428.75;5011675;28;20555;-51
2024/02/07 03:26:55;;;;;;;0.30;0.20;;;;;;;10.34;100.00;99421.38;5011740;28;20539;-50
2024/02/07 03:29:22;;;;;;;0.30;0.20;;;;;;;10.46;100.00;99427.97;5008099;28;20531;-51
2024/02/07 03:31:48;;;;;;;0.30;0.20;;;;;;;10.53;99.31;99429.44;4997139;28;20459;-51
2024/02/07 03:34:15;;;;;;;0.30;0.20;;;;;;;10.34;100.00;99437.31;5018445;28;20472;-50
2024/02/07 03:36:41;;;;;;;0.30;0.20;;;;;;;10.37;99.98;99429.22;5018283;28;20506;-49
2024/02/07 03:39:09;;;;;;;0.30;0.20;;;;;;;10.41;100.00;99434.38;5014891;28;20563;-51
2024/02/07 03:41:36;;;;;;;0.30;0.20;;;;;;;10.54;99.90;99427.63;4999247;28;20941;-51
2024/02/07 03:44:03;;;;;;;0.30;0.20;;;;;;;10.46;99.81;99412.03;5010774;28;20481;-50
2024/02/07 03:46:29;;;;;;;2.57;2.47;;;;;;;10.48;99.91;99418.13;5000854;28;21027;-51
2024/02/07 03:48:56;;;;;;;0.30;0.20;;;;;;;10.47;100.00;99413.75;5018073;28;20492;-50
2024/02/07 03:51:27;;;;;;;0.30;0.20;;;;;;;10.50;100.00;99412.75;5018215;28;20522;-50
2024/02/07 03:53:54;;;;;;;0.30;0.20;;;;;;;10.48;100.00;99406.66;5017762;28;20475;-49
2024/02/07 03:56:20;;;;;;;0.30;0.20;;;;;;;10.64;100.00;99391.78;5009252;28;20459;-51
2024/02/07 03:58:47;;;;;;;0.30;0.20;;;;;;;10.50;100.00;99395.03;4991602;28;20453;-51
2024/02/07 04:01:17;;;;;;;0.30;0.20;;;;;;;10.46;100.00;99389.91;5011169;28;20454;-50
2024/02/07 04:03:47;;;;;;;0.30;0.20;;;;;;;10.54;100.00;99372.69;5018132;28;20487;-50
2024/02/07 04:06:13;;;;;;;0.30;0.20;;;;;;;10.50;100.00;99388.84;5017917;28;20872;-50
2024/02/07 04:08:40;;;;;;;0.30;0.20;;;;;;;10.46;100.00;99389.91;5017804;28;20858;-50
2024/02/07 04:11:07;;;;;;;0.30;0.20;;;;;;;10.57;100.00;99377.03;5018171;28;20449;-51
2024/02/07 05:16:30;;;;;;;0.30;0.20;;;;;;;10.53;100.00;99322.28;5014044;28;20447;-51
2024/02/07 05:18:57;;;;;;;0.40;0.20;;;;;;;10.46;100.00;99319.03;5014009;28;20837;-50
2024/02/07 05:21:23;;;;;;;0.30;0.20;;;;;;;10.42;100.00;99312.16;5013812;28;20482;-51
2024/02/07 05:23:50;;;;;;;0.30;0.20;;;;;;;10.51;100.00;99308.19;5003843;28;20589;-51
2024/02/07 05:26:17;;;;;;;0.30;0.20;;;;;;;10.55;100.00;99309.78;5013374;28;20908;-51
2024/02/07 05:28:45;;;;;;;0.30;0.20;;;;;;;10.56;100.00;99300.91;5013603;28;20542;-51
2024/02/07 05:31:12;;;;;;;0.30;0.20;;;;;;;10.51;100.00;99306.41;5013781;28;20507;-50
2024/02/07 05:33:39;;;;;;;0.30;0.20;;;;;;;10.58;100.00;99305.22;5013785;28;20472;-50
2024/02/07 05:36:06;;;;;;;0.30;0.20;;;;;;;10.56;100.00;99307.09;5013489;28;20928;-51
2024/02/07 05:38:32;;;;;;;0.30;0.20;;;;;;;10.46;100.00;99296.94;4999808;28;20533;-49
2024/02/07 05:40:59;;;;;;;3.93;3.57;;;;;;;10.49;100.00;99299.44;5011697;28;20462;-50
2024/02/07 05:43:26;;;;;;;0.30;0.20;;;;;;;10.45;100.00;99293.41;5013434;28;20997;-51
2024/02/07 05:45:55;;;;;;;0.30;0.20;;;;;;;10.41;100.00;99290.94;5013260;28;20460;-50
2024/02/07 05:48:21;;;;;;;0.30;0.20;;;;;;;10.42;100.00;99284.72;5013154;28;20484;-49
2024/02/07 05:50:48;;;;;;;0.30;0.20;;;;;;;10.50;100.00;99279.91;5013511;28;20456;-50
2024/02/07 05:53:14;;;;;;;0.30;0.20;;;;;;;10.52;100.00;99276.25;5012924;28;20486;-50
2024/02/07 05:55:43;;;;;;;0.30;0.20;;;;;;;10.45;100.00;99277.47;4998590;28;20543;-50
2024/02/07 05:58:09;;;;;;;0.30;0.20;;;;;;;10.59;100.00;99276.84;5006449;28;20449;-50
2024/02/07 06:00:36;;;;;;;0.30;0.20;;;;;;;10.51;100.00;99271.88;5006703;28;20984;-49
2024/02/07 06:03:05;;;;;;;0.30;0.20;;;;;;;10.58;100.00;99270.69;5013073;28;20514;-51
2024/02/07 06:05:33;;;;;;;0.30;0.20;;;;;;;10.58;100.00;99273.34;4999656;28;20570;-50
2024/02/07 06:07:59;;;;;;;0.30;0.20;;;;;;;10.63;100.00;99273.13;5001144;28;20579;-51
2024/02/07 06:10:26;;;;;;;0.30;0.20;;;;;;;10.64;100.00;99261.56;5013234;28;20531;-50
2024/02/07 06:12:52;;;;;;;0.30;0.20;;;;;;;10.62;100.00;99260.75;5012714;28;20449;-48
2024/02/07 06:15:19;;;;;;;0.30;0.20;;;;;;;10.69;100.00;99259.56;5012747;28;20456;-50
2024/02/07 06:17:45;;;;;;;0.30;0.20;;;;;;;10.56;100.00;99256.59;5012895;28;20461;-50
2024/02/07 06:20:12;;;;;;;0.30;0.20;;;;;;;10.53;100.00;99254.06;4998466;28;20462;-49
2024/02/07 06:22:45;;;;;;;0.30;0.20;;;;;;;10.71;100.00;99262.16;5001588;28;20452;-53
2024/02/07 06:25:13;;;;;;;0.30;0.20;;;;;;;10.67;100.00;99258.75;5012816;28;20490;-50
2024/02/07 06:27:40;;;;;;;0.30;0.20;;;;;;;10.67;100.00;99256.09;5012601;28;20454;-51
2024/02/07 06:30:07;;;;;;;0.30;0.20;;;;;;;10.69;100.00;99259.56;5012580;28;20499;-50
2024/02/07 06:32:34;;;;;;;0.30;0.20;;;;;;;10.64;100.00;99253.56;5013155;28;20463;-51
2024/02/07 06:35:01;;;;;;;0.30;0.20;;;;;;;10.67;100.00;99256.94;5000535;28;20472;-50
2024/02/07 06:37:28;;;;;;;0.30;0.20;;;;;;;10.67;100.00;99264.06;5003806;28;20958;-50
2024/02/07 06:39:55;;;;;;;0.30;0.20;;;;;;;10.63;100.00;99263.34;5002226;28;20499;-50
2024/02/07 06:42:22;;;;;;;0.30;0.20;;;;;;;10.70;100.00;99258.63;5012223;28;20459;-51
2024/02/07 06:44:48;;;;;;;0.30;0.20;;;;;;;10.82;100.00;99260.69;4976607;28;20561;-50
2024/02/07 06:47:14;;;;;;;0.30;0.20;;;;;;;10.96;100.00;99252.06;4999854;28;21628;-51
2024/02/07 06:49:41;;;;;;;0.30;0.20;;;;;;;10.80;100.00;99249.28;4991840;28;20547;-50
2024/02/07 06:52:08;;;;;;;0.30;0.20;;;;;;;10.83;100.00;99253.63;4985902;28;20455;-51
2024/02/07 06:54:34;;;;;;;0.30;0.20;;;;;;;10.86;100.00;99246.34;4995593;28;20990;-50
2024/02/07 06:57:01;;;;;;;0.30;0.20;;;;;;;10.92;100.00;99247.84;5005246;28;20518;-51
2024/02/07 06:59:27;;;;;;;0.30;0.20;;;;;;;10.94;100.00;99251.28;5009000;28;20445;-50
2024/02/07 07:01:55;;;;;;;0.30;0.20;;;;;;;10.86;100.00;99243.69;4986334;28;20489;-51
2024/02/07 07:04:21;;;;;;;0.30;0.20;;;;;;;10.75;100.00;99250.44;5011560;28;20960;-51
2024/02/07 07:06:48;;;;;;;0.30;0.20;;;;;;;10.71;100.00;99241.75;5012008;28;20453;-51
2024/02/07 07:09:15;;;;;;;0.30;0.20;;;;;;;10.76;100.00;99247.72;5012224;28;20492;-51
2024/02/07 07:11:41;;;;;;;0.30;0.20;;;;;;;10.73;100.00;99242.53;5011717;28;20476;-50
2024/02/07 07:14:07;;;;;;;0.30;0.20;;;;;;;10.73;100.00;99242.53;5011808;28;20945;-50
2024/02/07 07:16:34;;;;;;;0.30;0.20;;;;;;;10.77;100.00;99243.25;5011695;28;20431;-51
2024/02/07 07:19:01;;;;;;;0.30;0.20;;;;;;;10.94;100.00;99235.34;5012176;28;20448;-51
2024/02/07 07:21:30;;;;;;;0.30;0.20;;;;;;;10.93;100.00;99234.47;5011720;28;20540;-55
2024/02/07 07:23:56;;;;;;;0.30;0.20;;;;;;;10.89;100.00;99234.72;5011899;28;20531;-51
2024/02/07 07:26:23;;;;;;;0.30;0.20;;;;;;;10.91;100.00;99228.38;5010910;28;20541;-51
2024/02/07 07:28:50;;;;;;;0.30;0.20;;;;;;;10.90;100.00;99228.44;4990036;28;20500;-51
2024/02/07 07:31:17;;;;;;;0.30;0.20;;;;;;;10.83;100.00;99227.91;4990066;28;20487;-51
2024/02/07 07:33:43;;;;;;;0.30;0.20;;;;;;;10.87;100.00;99232.13;4987830;28;20441;-50
2024/02/07 07:36:15;;;;;;;0.30;0.20;;;;;;;11.07;100.00;99219.66;4987717;28;20837;-51
2024/02/07 07:38:42;;;;;;;0.30;0.20;;;;;;;10.89;100.00;99226.72;4991860;28;20460;-51
2024/02/07 07:41:08;;;;;;;0.30;0.20;;;;;;;10.92;100.00;99222.13;4985626;28;20449;-51
2024/02/07 07:43:35;;;;;;;0.30;0.20;;;;;;;10.84;100.00;99223.44;4998388;28;20454;-50
2024/02/07 07:46:02;;;;;;;0.30;0.20;;;;;;;10.94;100.00;99214.06;5011856;28;20484;-50
2024/02/07 07:48:28;;;;;;;0.30;0.20;;;;;;;10.90;100.00;99220.47;4995634;28;20482;-50
2024/02/07 07:50:55;;;;;;;0.30;0.20;;;;;;;10.91;100.00;99212.44;4986728;28;20518;-50
2024/02/07 07:53:21;;;;;;;0.30;0.20;;;;;;;10.88;100.00;99209.06;5002929;28;20519;-50
2024/02/07 07:55:48;;;;;;;0.30;0.20;;;;;;;10.96;100.00;99214.84;4999240;28;20540;-51
2024/02/07 07:58:15;;;;;;;0.30;0.20;;;;;;;10.94;100.00;99214.94;4993846;28;20794;-51
2024/02/07 08:00:41;;;;;;;0.30;0.20;;;;;;;10.84;100.00;99208.34;4985092;28;20942;-49
2024/02/07 08:03:08;;;;;;;0.30;0.20;;;;;;;11.01;100.00;99212.84;5011694;28;20884;-50
2024/02/07 08:05:35;;;;;;;0.30;0.20;;;;;;;10.97;100.00;99216.59;5007147;28;20491;-51
2024/02/07 08:08:03;;;;;;;0.30;0.20;;;;;;;11.00;100.00;99204.97;4995108;28;20464;-51
2024/02/07 08:10:30;;;;;;;0.30;0.20;;;;;;;11.08;100.00;99203.63;4987992;28;20486;-50
2024/02/07 08:12:57;;;;;;;0.30;0.20;;;;;;;11.18;100.00;99204.94;4986951;28;20548;-51
2024/02/07 08:15:23;;;;;;;0.30;0.20;;;;;;;11.28;100.00;99210.66;5011854;28;20456;-51
2024/02/07 08:17:50;;;;;;;0.30;0.20;;;;;;;11.33;100.00;99215.75;5013304;28;20460;-50
2024/02/07 08:20:18;;;;;;;0.30;0.20;;;;;;;11.51;100.00;99213.06;4990849;28;20449;-50
2024/02/07 08:22:44;;;;;;;0.30;0.20;;;;;;;11.52;100.00;99200.63;5014823;28;20452;-51
2024/02/07 08:25:11;;;;;;;0.30;0.20;;;;;;;11.65;100.00;99211.47;5012525;28;20480;-51
2024/02/07 08:27:38;;;;;;;0.30;0.20;;;;;;;11.54;100.00;99212.91;5014768;28;20527;-51
2024/02/07 08:30:05;;;;;;;0.30;0.20;;;;;;;11.49;100.00;99209.59;4997560;28;20586;-51
2024/02/07 08:32:32;;;;;;;0.30;0.20;;;;;;;11.65;100.00;99208.81;5014733;28;20469;-51
2024/02/07 08:34:59;;;;;;;0.30;0.20;;;;;;;11.57;100.00;99203.91;5014659;28;20454;-51
2024/02/07 08:37:26;;;;;;;0.30;0.20;;;;;;;11.51;100.00;99205.09;5011363;28;20425;-50
2024/02/07 08:39:53;;;;;;;0.30;0.20;;;;;;;11.51;100.00;99201.53;5014874;28;20448;-52
2024/02/07 08:42:20;;;;;;;0.30;0.20;;;;;;;11.65;100.00;99200.84;5014450;28;20785;-51
2024/02/07 08:44:47;;;;;;;0.30;0.20;;;;;;;11.70;100.00;99196.16;5014613;28;20564;-51
2024/02/07 08:47:14;;;;;;;0.30;0.20;;;;;;;11.61;100.00;99196.63;5014491;28;20452;-51
2024/02/07 08:49:40;;;;;;;0.30;0.20;;;;;;;11.73;100.00;99204.00;5014376;28;20507;-51
2024/02/07 08:52:07;;;;;;;0.30;0.20;;;;;;;11.74;100.00;99195.06;5014574;28;21541;-51
2024/02/07 08:54:34;;;;;;;0.30;0.20;;;;;;;11.70;100.00;99196.16;5009505;28;20516;-51
2024/02/07 08:57:00;;;;;;;0.30;0.20;;;;;;;11.58;100.00;99193.19;5010601;28;20506;-50
2024/02/07 08:59:27;;;;;;;0.30;0.20;;;;;;;11.68;100.00;99188.25;5014293;28;20544;-50
2024/02/07 09:01:53;;;;;;;0.30;0.30;;;;;;;11.81;100.00;99192.06;5014185;28;20452;-50
2024/02/07 09:04:20;;;;;;;0.30;0.20;;;;;;;11.81;100.00;99191.19;5014028;28;20511;-50
2024/02/07 09:06:46;;;;;;;0.30;0.20;;;;;;;11.81;100.00;99191.19;5014094;28;20455;-50
2024/02/07 09:09:13;;;;;;;0.30;0.20;;;;;;;11.89;100.00;99188.13;5014421;28;20587;-50
2024/02/07 09:11:39;;;;;;;0.30;0.20;;;;;;;11.98;100.00;99193.84;5013875;28;21143;-51
2024/02/07 09:14:06;;;;;;;0.30;0.20;;;;;;;12.03;100.00;99196.25;5014145;28;20474;-50
2024/02/07 09:16:33;;;;;;;0.30;0.20;;;;;;;11.98;100.00;99193.84;5013959;28;20456;-50
2024/02/07 09:18:59;;;;;;;0.30;0.20;;;;;;;12.06;100.00;99190.75;5014093;28;20455;-50
2024/02/07 09:21:27;;;;;;;0.30;0.20;;;;;;;11.88;100.00;99192.59;5014134;28;20536;-50
2024/02/07 09:23:55;;;;;;;0.30;0.20;;;;;;;11.95;100.00;99195.81;4993901;28;20507;-50
2024/02/07 09:26:21;;;;;;;0.30;0.20;;;;;;;11.85;100.00;99190.09;5008677;28;20491;-50
2024/02/07 09:28:48;;;;;;;0.30;0.20;;;;;;;11.97;100.00;99185.94;5012857;28;20480;-50
2024/02/07 09:31:14;;;;;;;0.30;0.20;;;;;;;12.19;100.00;99188.31;5013388;28;20459;-50
2024/02/07 09:33:41;;;;;;;0.30;0.20;;;;;;;12.30;100.00;99173.47;5013896;28;20819;-50
2024/02/07 09:36:08;;;;;;;0.30;0.20;;;;;;;12.15;100.00;99176.97;5013670;28;20467;-50
2024/02/07 09:38:35;;;;;;;0.30;0.20;;;;;;;12.14;100.00;99177.91;5010529;28;20456;-50
2024/02/07 09:41:04;;;;;;;0.30;0.20;;;;;;;12.22;100.00;99175.72;5013669;28;20449;-50
2024/02/07 09:43:32;;;;;;;0.30;0.20;;;;;;;12.22;100.00;99166.84;5013368;28;20468;-50
2024/02/07 09:45:59;;;;;;;0.30;0.20;;;;;;;12.33;100.00;99162.66;5013390;28;20452;-50
2024/02/07 09:48:27;;;;;;;0.30;0.20;;;;;;;12.40;100.00;99165.88;5013703;28;20456;-50
2024/02/07 09:50:58;;;;;;;0.30;0.20;;;;;;;12.44;100.00;99170.06;5013356;28;20591;-50
2024/02/07 09:53:26;;;;;;;0.30;0.20;;;;;;;12.57;100.00;99163.13;4987300;28;20932;-52
2024/02/07 09:55:53;;;;;;;0.30;0.20;;;;;;;12.54;99.25;99162.44;5013343;28;20519;-50
2024/02/07 09:58:21;;;;;;;0.30;0.20;;;;;;;12.69;99.56;99165.13;5012897;28;20460;-50
2024/02/07 10:00:50;;;;;;;0.30;0.20;;;;;;;12.66;99.04;99159.13;5013463;28;20481;-50
2024/02/07 10:03:23;;;;;;;0.30;0.20;;;;;;;12.57;99.07;99154.28;5013275;28;20531;-50
2024/02/07 10:05:52;;;;;;;0.30;0.20;;;;;;;12.51;99.20;99158.16;5013264;28;20487;-50
2024/02/07 10:08:18;;;;;;;0.30;0.20;;;;;;;12.57;98.78;99167.59;5007579;28;20964;-50
2024/02/07 10:10:49;;;;;;;0.30;0.20;;;;;;;12.60;98.65;99157.63;4992490;28;20598;-50
2024/02/07 10:13:17;;;;;;;0.30;0.20;;;;;;;12.68;98.51;99159.88;5012853;28;20491;-50
2024/02/07 10:15:44;;;;;;;0.30;0.20;;;;;;;12.44;98.83;99162.94;5012908;28;20448;-50
2024/02/07 10:18:11;;;;;;;0.30;0.20;;;;;;;12.61;99.14;99161.16;5012955;28;20931;-50
2024/02/07 10:20:38;;;;;;;0.30;0.20;;;;;;;12.77;98.29;99161.19;5013053;28;20451;-50
2024/02/07 10:23:07;;;;;;;0.30;0.20;;;;;;;12.63;99.33;99148.63;5012636;28;20545;-50
2024/02/07 10:25:35;;;;;;;0.30;0.20;;;;;;;12.80;99.48;99145.00;5010572;28;20449;-50
2024/02/07 10:28:06;;;;;;;0.30;0.20;;;;;;;12.91;98.66;99137.28;5012672;28;20537;-50
2024/02/07 10:30:32;;;;;;;0.30;0.20;;;;;;;12.86;98.39;99144.66;5012696;28;20503;-50
2024/02/07 10:32:59;;;;;;;0.30;0.20;;;;;;;13.02;97.53;99141.06;5012565;28;20448;-50
2024/02/07 10:35:26;;;;;;;0.30;0.20;;;;;;;12.93;97.72;99141.56;5012799;28;20452;-50
2024/02/07 10:37:55;;;;;;;0.30;0.20;;;;;;;12.79;97.42;99141.47;5009157;28;20456;-50
2024/02/07 10:40:22;;;;;;;0.30;0.20;;;;;;;12.88;96.82;99135.63;5012645;28;20448;-50
2024/02/07 10:42:56;;;;;;;0.30;0.20;;;;;;;12.89;96.70;99137.34;5012372;28;20448;-50
2024/02/07 10:45:25;;;;;;;0.40;0.30;;;;;;;12.78;96.75;99139.78;5012287;28;20863;-50
2024/02/07 10:47:52;;;;;;;0.30;0.20;;;;;;;12.71;97.21;99130.38;5012447;28;20484;-50
2024/02/07 10:50:21;;;;;;;0.30;0.20;;;;;;;12.55;97.87;99130.38;5012061;28;20949;-50
2024/02/07 10:52:49;;;;;;;0.30;0.20;;;;;;;12.63;97.62;99124.63;5012323;28;20448;-50
2024/02/07 10:55:18;;;;;;;0.30;0.20;;;;;;;12.67;96.76;99118.16;4985600;28;20436;-50
2024/02/07 10:57:50;;;;;;;0.30;0.20;;;;;;;12.46;97.90;99122.88;5012318;28;20453;-50
2024/02/07 11:00:17;;;;;;;0.30;0.20;;;;;;;12.63;97.67;99117.50;5012147;28;20977;-50
2024/02/07 11:02:47;;;;;;;0.30;0.20;;;;;;;12.35;97.83;99119.97;5012217;28;20448;-50
2024/02/07 11:05:14;;;;;;;0.30;0.20;;;;;;;12.41;97.97;99114.28;5011976;28;20511;-50
2024/02/07 11:07:41;;;;;;;0.30;0.20;;;;;;;12.39;97.99;99119.69;4991190;28;20541;-50
2024/02/07 11:10:08;;;;;;;0.30;0.20;;;;;;;12.35;98.06;99103.97;5007165;28;20524;-50
2024/02/07 11:12:37;;;;;;;0.30;0.20;;;;;;;12.47;97.44;99111.25;5011762;28;20456;-50
2024/02/07 11:15:04;;;;;;;0.30;0.20;;;;;;;12.36;97.58;99097.69;5011831;28;20530;-50
2024/02/07 11:17:31;;;;;;;0.30;0.20;;;;;;;12.35;98.58;99095.97;5011922;28;20551;-50
2024/02/07 11:19:58;;;;;;;0.30;0.20;;;;;;;12.42;97.73;99097.34;5012007;28;20452;-50
2024/02/07 11:22:33;;;;;;;0.30;0.20;;;;;;;12.57;97.60;99096.50;5012120;28;20478;-50
2024/02/07 11:25:00;;;;;;;0.30;0.20;;;;;;;12.55;97.96;99092.19;5008919;28;20964;-50
2024/02/07 11:27:27;;;;;;;0.30;0.20;;;;;;;12.58;97.60;99087.53;5011731;28;20539;-50
2024/02/07 11:29:54;;;;;;;0.30;0.20;;;;;;;12.53;98.07;99089.63;5011584;28;20991;-50
2024/02/07 11:32:21;;;;;;;0.30;0.20;;;;;;;12.65;97.80;99078.28;5011812;28;20554;-50
2024/02/07 11:34:54;;;;;;;0.30;0.20;;;;;;;12.67;97.27;99094.19;5012026;28;20490;-50
2024/02/07 11:37:22;;;;;;;0.30;0.20;;;;;;;12.58;98.86;99078.69;5008472;28;20453;-50
2024/02/07 11:39:49;;;;;;;0.30;0.20;;;;;;;12.49;98.37;99076.56;5011733;28;20507;-50
2024/02/07 11:42:18;;;;;;;0.30;0.20;;;;;;;12.48;98.01;99073.03;5011659;28;20499;-50
2024/02/07 11:44:49;;;;;;;0.30;0.20;;;;;;;12.57;98.21;99063.63;5011703;28;20469;-50
2024/02/07 11:47:26;;;;;;;0.30;0.20;;;;;;;12.63;98.45;99068.66;5011733;28;20527;-51
2024/02/07 11:49:57;;;;;;;0.30;0.20;;;;;;;12.86;97.98;99064.66;5011845;28;20523;-50
2024/02/07 11:52:28;;;;;;;0.30;0.20;;;;;;;13.00;96.92;99067.38;5014577;28;20561;-50
2024/02/07 11:55:16;;;;;;;0.30;0.20;;;;;;;12.98;96.58;99061.28;5007098;28;20468;-50
2024/02/07 11:57:53;;;;;;;0.30;0.20;;;;;;;13.07;96.24;99047.41;5005267;28;20476;-50
2024/02/07 12:00:22;;;;;;;0.30;0.20;;;;;;;13.04;96.45;99052.94;5015405;28;20531;-50
2024/02/07 12:02:52;;;;;;;0.30;0.20;;;;;;;13.00;96.60;99052.22;5015472;28;20533;-50
2024/02/07 12:05:20;;;;;;;0.30;0.20;;;;;;;12.99;96.72;99041.66;5015245;28;20429;-50
2024/02/07 12:07:47;;;;;;;0.30;0.20;;;;;;;13.08;96.40;99048.25;5015558;28;20456;-50
2024/02/07 12:10:14;;;;;;;0.30;0.20;;;;;;;13.08;96.53;99040.25;5015287;28;20819;-50
2024/02/07 12:12:42;;;;;;;0.30;0.20;;;;;;;13.10;96.13;99047.22;4991090;28;20436;-51
2024/02/07 12:15:09;;;;;;;0.30;0.20;;;;;;;13.19;96.29;99033.38;5013931;28;20981;-49
2024/02/07 12:17:35;;;;;;;0.30;0.20;;;;;;;12.98;96.53;99038.13;5015136;28;21025;-51
2024/02/07 12:20:03;;;;;;;0.30;0.20;;;;;;;12.83;96.20;99036.34;5002491;28;20438;-51
2024/02/07 12:22:31;;;;;;;0.30;0.20;;;;;;;13.07;96.38;99034.06;5002443;28;20464;-51
2024/02/07 12:25:02;;;;;;;0.30;0.20;;;;;;;12.97;96.35;99032.88;4999766;28;20558;-51
2024/02/07 12:27:29;;;;;;;0.30;0.20;;;;;;;12.93;97.08;99031.34;5003862;28;20495;-50
2024/02/07 12:29:57;;;;;;;0.30;0.20;;;;;;;13.32;95.72;99036.16;5000340;28;21039;-51
2024/02/07 12:32:25;;;;;;;0.30;0.20;;;;;;;13.16;96.49;99030.00;5004340;28;20454;-51
2024/02/07 12:34:53;;;;;;;0.30;0.20;;;;;;;13.21;95.67;99023.47;5014828;28;20922;-50
2024/02/07 12:37:21;;;;;;;0.30;0.20;;;;;;;13.23;95.86;99016.22;5011949;28;20888;-51